sensor_id;sensor_type;location;lat;lon;timestamp;temperature;humidity
27492;DHT22;14927;51.210;6.838;2023-05-02T00:02:17;17.50;55.90
27492;DHT22;14927;51.210;6.838;2023-05-02T00:05:01;17.50;55.90
27492;DHT22;14927;51.210;6.838;2023-05-02T00:07:46;17.40;55.90
27492;DHT22;14927;51.210;6.838;2023-05-02T00:10:31;17.40;56.00
27492;DHT22;14927;51.210;6.838;2023-05-02T00:13:16;17.50;56.10
27492;DHT22;14927;51.210;6.838;2023-05-02T00:16:00;17.30;56.00
27492;DHT22;14927;51.210;6.838;2023-05-02T00:18:45;17.30;56.00
27492;DHT22;14927;51.210;6.838;2023-05-02T00:21:30;17.30;56.20
27492;DHT22;14927;51.210;6.838;2023-05-02T00:24:19;17.20;56.20
27492;DHT22;14927;51.210;6.838;2023-05-02T00:27:04;17.20;56.30
27492;DHT22;14927;51.210;6.838;2023-05-02T00:29:49;17.10;56.30
27492;DHT22;14927;51.210;6.838;2023-05-02T00:32:35;17.10;56.30
27492;DHT22;14927;51.210;6.838;2023-05-02T00:35:19;17.10;56.40
27492;DHT22;14927;51.210;6.838;2023-05-02T00:38:04;17.00;56.50
27492;DHT22;14927;51.210;6.838;2023-05-02T00:40:49;17.00;56.60
27492;DHT22;14927;51.210;6.838;2023-05-02T00:43:37;16.90;56.70
27492;DHT22;14927;51.210;6.838;2023-05-02T00:46:24;16.90;56.80
27492;DHT22;14927;51.210;6.838;2023-05-02T00:49:09;16.90;56.90
27492;DHT22;14927;51.210;6.838;2023-05-02T00:51:54;16.90;56.90
27492;DHT22;14927;51.210;6.838;2023-05-02T00:54:38;16.80;57.70
27492;DHT22;14927;51.210;6.838;2023-05-02T00:57:23;16.80;57.20
27492;DHT22;14927;51.210;6.838;2023-05-02T01:00:09;16.80;57.30
27492;DHT22;14927;51.210;6.838;2023-05-02T01:03:08;16.80;57.40
27492;DHT22;14927;51.210;6.838;2023-05-02T01:06:23;16.70;57.80
27492;DHT22;14927;51.210;6.838;2023-05-02T01:10:00;16.70;57.80
27492;DHT22;14927;51.210;6.838;2023-05-02T01:13:19;16.60;58.30
27492;DHT22;14927;51.210;6.838;2023-05-02T01:16:06;16.60;57.90
27492;DHT22;14927;51.210;6.838;2023-05-02T01:18:55;16.50;57.90
27492;DHT22;14927;51.210;6.838;2023-05-02T01:21:42;16.60;58.30
27492;DHT22;14927;51.210;6.838;2023-05-02T01:24:31;16.50;58.30
27492;DHT22;14927;51.210;6.838;2023-05-02T01:27:39;16.50;58.40
27492;DHT22;14927;51.210;6.838;2023-05-02T01:30:33;16.50;58.90
27492;DHT22;14927;51.210;6.838;2023-05-02T01:33:20;16.50;58.50
27492;DHT22;14927;51.210;6.838;2023-05-02T01:36:08;16.50;58.60
27492;DHT22;14927;51.210;6.838;2023-05-02T01:38:54;16.50;58.60
27492;DHT22;14927;51.210;6.838;2023-05-02T01:41:41;16.50;58.70
27492;DHT22;14927;51.210;6.838;2023-05-02T01:44:26;16.40;58.70
27492;DHT22;14927;51.210;6.838;2023-05-02T01:47:12;16.40;58.80
27492;DHT22;14927;51.210;6.838;2023-05-02T01:49:59;16.40;58.90
27492;DHT22;14927;51.210;6.838;2023-05-02T01:52:46;16.40;58.90
27492;DHT22;14927;51.210;6.838;2023-05-02T01:55:35;16.30;58.90
27492;DHT22;14927;51.210;6.838;2023-05-02T01:58:20;16.30;59.10
27492;DHT22;14927;51.210;6.838;2023-05-02T02:01:06;16.30;59.10
27492;DHT22;14927;51.210;6.838;2023-05-02T02:03:54;16.30;59.10
27492;DHT22;14927;51.210;6.838;2023-05-02T02:06:43;16.20;59.20
27492;DHT22;14927;51.210;6.838;2023-05-02T02:09:30;16.30;59.40
27492;DHT22;14927;51.210;6.838;2023-05-02T02:12:16;16.30;59.40
27492;DHT22;14927;51.210;6.838;2023-05-02T02:15:17;16.20;59.40
27492;DHT22;14927;51.210;6.838;2023-05-02T02:18:22;16.20;59.40
27492;DHT22;14927;51.210;6.838;2023-05-02T02:21:10;16.20;59.80
27492;DHT22;14927;51.210;6.838;2023-05-02T02:23:56;16.30;59.40
27492;DHT22;14927;51.210;6.838;2023-05-02T02:26:45;16.20;59.40
27492;DHT22;14927;51.210;6.838;2023-05-02T02:29:29;16.30;59.50
27492;DHT22;14927;51.210;6.838;2023-05-02T02:32:14;16.30;59.50
27492;DHT22;14927;51.210;6.838;2023-05-02T02:34:59;16.30;59.50
27492;DHT22;14927;51.210;6.838;2023-05-02T02:38:01;16.20;59.50
27492;DHT22;14927;51.210;6.838;2023-05-02T02:40:56;16.30;59.70
27492;DHT22;14927;51.210;6.838;2023-05-02T02:53:03;16.40;59.70
27492;DHT22;14927;51.210;6.838;2023-05-02T02:55:56;16.30;59.50
27492;DHT22;14927;51.210;6.838;2023-05-02T03:01:47;16.40;59.80
27492;DHT22;14927;51.210;6.838;2023-05-02T03:04:34;16.30;59.80
27492;DHT22;14927;51.210;6.838;2023-05-02T03:07:21;16.30;59.80
27492;DHT22;14927;51.210;6.838;2023-05-02T03:10:06;16.40;59.80
27492;DHT22;14927;51.210;6.838;2023-05-02T03:12:51;16.40;59.90
27492;DHT22;14927;51.210;6.838;2023-05-02T03:18:35;16.40;60.10
27492;DHT22;14927;51.210;6.838;2023-05-02T03:21:20;16.40;59.80
27492;DHT22;14927;51.210;6.838;2023-05-02T03:24:05;16.40;59.80
27492;DHT22;14927;51.210;6.838;2023-05-02T03:26:54;16.40;59.70
27492;DHT22;14927;51.210;6.838;2023-05-02T03:29:39;16.50;59.80
27492;DHT22;14927;51.210;6.838;2023-05-02T03:32:24;16.40;59.60
27492;DHT22;14927;51.210;6.838;2023-05-02T03:35:09;16.40;59.60
27492;DHT22;14927;51.210;6.838;2023-05-02T03:37:54;16.40;59.50
27492;DHT22;14927;51.210;6.838;2023-05-02T03:40:39;16.40;59.50
27492;DHT22;14927;51.210;6.838;2023-05-02T03:43:23;16.40;59.40
27492;DHT22;14927;51.210;6.838;2023-05-02T03:46:09;16.40;59.50
27492;DHT22;14927;51.210;6.838;2023-05-02T03:48:57;16.40;59.40
27492;DHT22;14927;51.210;6.838;2023-05-02T03:51:41;16.50;59.40
27492;DHT22;14927;51.210;6.838;2023-05-02T03:54:26;16.50;59.30
27492;DHT22;14927;51.210;6.838;2023-05-02T03:57:10;16.50;59.20
27492;DHT22;14927;51.210;6.838;2023-05-02T03:59:55;16.50;59.20
27492;DHT22;14927;51.210;6.838;2023-05-02T04:02:40;16.50;59.20
27492;DHT22;14927;51.210;6.838;2023-05-02T04:05:24;16.50;59.20
27492;DHT22;14927;51.210;6.838;2023-05-02T04:08:09;16.50;59.10
27492;DHT22;14927;51.210;6.838;2023-05-02T04:10:54;16.50;59.10
27492;DHT22;14927;51.210;6.838;2023-05-02T04:13:39;16.50;59.00
27492;DHT22;14927;51.210;6.838;2023-05-02T04:16:23;16.50;58.90
27492;DHT22;14927;51.210;6.838;2023-05-02T04:19:08;16.50;58.80
27492;DHT22;14927;51.210;6.838;2023-05-02T04:21:53;16.50;58.80
27492;DHT22;14927;51.210;6.838;2023-05-02T04:24:38;16.50;58.70
27492;DHT22;14927;51.210;6.838;2023-05-02T04:27:23;16.50;58.60
27492;DHT22;14927;51.210;6.838;2023-05-02T04:30:08;16.50;58.60
27492;DHT22;14927;51.210;6.838;2023-05-02T04:32:53;16.50;58.60
27492;DHT22;14927;51.210;6.838;2023-05-02T04:35:39;16.50;58.60
27492;DHT22;14927;51.210;6.838;2023-05-02T04:38:24;16.40;58.60
27492;DHT22;14927;51.210;6.838;2023-05-02T04:41:09;16.40;58.60
27492;DHT22;14927;51.210;6.838;2023-05-02T04:43:54;16.40;58.60
27492;DHT22;14927;51.210;6.838;2023-05-02T04:46:38;16.40;58.60
27492;DHT22;14927;51.210;6.838;2023-05-02T04:49:23;16.40;58.70
27492;DHT22;14927;51.210;6.838;2023-05-02T04:52:08;16.40;58.70
27492;DHT22;14927;51.210;6.838;2023-05-02T04:54:53;16.40;58.60
27492;DHT22;14927;51.210;6.838;2023-05-02T04:57:38;16.40;58.60
27492;DHT22;14927;51.210;6.838;2023-05-02T05:00:23;16.40;59.30
27492;DHT22;14927;51.210;6.838;2023-05-02T05:03:08;16.40;58.70
27492;DHT22;14927;51.210;6.838;2023-05-02T05:05:52;16.40;58.90
27492;DHT22;14927;51.210;6.838;2023-05-02T05:08:37;16.40;58.90
27492;DHT22;14927;51.210;6.838;2023-05-02T05:11:23;16.40;58.90
27492;DHT22;14927;51.210;6.838;2023-05-02T05:14:09;16.40;59.00
27492;DHT22;14927;51.210;6.838;2023-05-02T05:16:53;16.40;59.10
27492;DHT22;14927;51.210;6.838;2023-05-02T05:19:38;16.40;59.50
27492;DHT22;14927;51.210;6.838;2023-05-02T05:22:23;16.30;59.70
27492;DHT22;14927;51.210;6.838;2023-05-02T05:25:09;16.30;59.90
27492;DHT22;14927;51.210;6.838;2023-05-02T05:27:54;16.10;60.00
27492;DHT22;14927;51.210;6.838;2023-05-02T05:30:39;16.30;60.30
27492;DHT22;14927;51.210;6.838;2023-05-02T05:33:24;16.30;60.50
27492;DHT22;14927;51.210;6.838;2023-05-02T05:36:12;16.30;60.80
27492;DHT22;14927;51.210;6.838;2023-05-02T05:38:58;16.20;61.20
27492;DHT22;14927;51.210;6.838;2023-05-02T05:41:42;16.20;61.10
27492;DHT22;14927;51.210;6.838;2023-05-02T05:44:27;16.20;61.40
27492;DHT22;14927;51.210;6.838;2023-05-02T05:47:12;16.20;61.70
27492;DHT22;14927;51.210;6.838;2023-05-02T05:49:56;16.20;62.00
27492;DHT22;14927;51.210;6.838;2023-05-02T05:52:41;16.20;62.20
27492;DHT22;14927;51.210;6.838;2023-05-02T05:55:26;16.20;62.40
27492;DHT22;14927;51.210;6.838;2023-05-02T05:58:12;16.20;62.40
27492;DHT22;14927;51.210;6.838;2023-05-02T06:00:56;16.20;62.20
27492;DHT22;14927;51.210;6.838;2023-05-02T06:03:41;16.20;62.20
27492;DHT22;14927;51.210;6.838;2023-05-02T06:06:26;16.20;62.30
27492;DHT22;14927;51.210;6.838;2023-05-02T06:09:11;16.20;62.10
27492;DHT22;14927;51.210;6.838;2023-05-02T06:11:55;16.20;61.80
27492;DHT22;14927;51.210;6.838;2023-05-02T06:14:40;16.20;61.70
27492;DHT22;14927;51.210;6.838;2023-05-02T06:17:25;16.20;61.70
27492;DHT22;14927;51.210;6.838;2023-05-02T06:20:09;16.30;61.40
27492;DHT22;14927;51.210;6.838;2023-05-02T06:22:54;16.30;61.20
27492;DHT22;14927;51.210;6.838;2023-05-02T06:25:39;16.30;60.90
27492;DHT22;14927;51.210;6.838;2023-05-02T06:28:23;16.30;60.90
27492;DHT22;14927;51.210;6.838;2023-05-02T06:31:08;16.30;60.80
27492;DHT22;14927;51.210;6.838;2023-05-02T06:33:53;16.30;60.70
27492;DHT22;14927;51.210;6.838;2023-05-02T06:36:37;16.30;60.40
27492;DHT22;14927;51.210;6.838;2023-05-02T06:39:22;16.30;60.10
27492;DHT22;14927;51.210;6.838;2023-05-02T06:42:07;16.30;60.10
27492;DHT22;14927;51.210;6.838;2023-05-02T06:44:52;16.30;60.00
27492;DHT22;14927;51.210;6.838;2023-05-02T06:47:37;16.30;59.80
27492;DHT22;14927;51.210;6.838;2023-05-02T06:50:21;16.30;59.70
27492;DHT22;14927;51.210;6.838;2023-05-02T06:53:06;16.30;59.60
27492;DHT22;14927;51.210;6.838;2023-05-02T06:55:51;16.30;59.30
27492;DHT22;14927;51.210;6.838;2023-05-02T06:58:36;16.30;59.00
27492;DHT22;14927;51.210;6.838;2023-05-02T07:01:21;16.30;58.80
27492;DHT22;14927;51.210;6.838;2023-05-02T07:04:06;16.40;58.60
27492;DHT22;14927;51.210;6.838;2023-05-02T07:06:50;16.40;58.20
27492;DHT22;14927;51.210;6.838;2023-05-02T07:09:35;16.40;57.90
27492;DHT22;14927;51.210;6.838;2023-05-02T07:12:20;16.40;57.70
27492;DHT22;14927;51.210;6.838;2023-05-02T07:15:05;16.30;57.40
27492;DHT22;14927;51.210;6.838;2023-05-02T07:17:51;16.30;57.30
27492;DHT22;14927;51.210;6.838;2023-05-02T07:20:35;16.40;57.10
27492;DHT22;14927;51.210;6.838;2023-05-02T07:23:22;16.40;56.90
27492;DHT22;14927;51.210;6.838;2023-05-02T07:26:06;16.40;56.90
27492;DHT22;14927;51.210;6.838;2023-05-02T07:28:51;16.40;56.90
27492;DHT22;14927;51.210;6.838;2023-05-02T07:31:36;16.40;56.90
27492;DHT22;14927;51.210;6.838;2023-05-02T07:34:21;16.30;56.70
27492;DHT22;14927;51.210;6.838;2023-05-02T07:37:06;16.50;56.70
27492;DHT22;14927;51.210;6.838;2023-05-02T07:39:50;16.50;56.60
27492;DHT22;14927;51.210;6.838;2023-05-02T07:42:35;16.50;56.50
27492;DHT22;14927;51.210;6.838;2023-05-02T07:45:20;16.50;56.50
27492;DHT22;14927;51.210;6.838;2023-05-02T07:48:05;16.60;56.60
27492;DHT22;14927;51.210;6.838;2023-05-02T07:50:49;16.60;56.60
27492;DHT22;14927;51.210;6.838;2023-05-02T07:53:34;16.60;56.60
27492;DHT22;14927;51.210;6.838;2023-05-02T07:56:19;16.70;56.50
27492;DHT22;14927;51.210;6.838;2023-05-02T07:59:04;16.70;56.10
27492;DHT22;14927;51.210;6.838;2023-05-02T08:01:48;16.70;55.90
27492;DHT22;14927;51.210;6.838;2023-05-02T08:04:34;16.70;55.70
27492;DHT22;14927;51.210;6.838;2023-05-02T08:07:19;16.70;56.10
27492;DHT22;14927;51.210;6.838;2023-05-02T08:10:05;16.70;55.20
27492;DHT22;14927;51.210;6.838;2023-05-02T08:12:51;16.70;55.00
27492;DHT22;14927;51.210;6.838;2023-05-02T08:15:35;16.70;55.00
27492;DHT22;14927;51.210;6.838;2023-05-02T08:18:20;16.60;54.90
27492;DHT22;14927;51.210;6.838;2023-05-02T08:21:05;16.60;54.80
27492;DHT22;14927;51.210;6.838;2023-05-02T08:23:49;16.60;54.60
27492;DHT22;14927;51.210;6.838;2023-05-02T08:26:34;16.60;54.40
27492;DHT22;14927;51.210;6.838;2023-05-02T08:29:18;16.60;54.10
27492;DHT22;14927;51.210;6.838;2023-05-02T08:32:03;16.60;53.90
27492;DHT22;14927;51.210;6.838;2023-05-02T08:34:48;16.60;53.70
27492;DHT22;14927;51.210;6.838;2023-05-02T08:37:33;16.50;53.70
27492;DHT22;14927;51.210;6.838;2023-05-02T08:40:19;16.50;53.70
27492;DHT22;14927;51.210;6.838;2023-05-02T08:43:05;16.50;53.70
27492;DHT22;14927;51.210;6.838;2023-05-02T08:45:52;16.50;54.30
27492;DHT22;14927;51.210;6.838;2023-05-02T08:48:40;16.50;53.50
27492;DHT22;14927;51.210;6.838;2023-05-02T08:51:26;16.50;53.20
27492;DHT22;14927;51.210;6.838;2023-05-02T08:54:15;16.50;53.00
27492;DHT22;14927;51.210;6.838;2023-05-02T08:57:03;16.50;52.70
27492;DHT22;14927;51.210;6.838;2023-05-02T08:59:48;16.50;52.70
27492;DHT22;14927;51.210;6.838;2023-05-02T09:05:42;16.50;52.10
27492;DHT22;14927;51.210;6.838;2023-05-02T09:08:28;16.60;52.50
27492;DHT22;14927;51.210;6.838;2023-05-02T09:11:14;16.60;52.60
27492;DHT22;14927;51.210;6.838;2023-05-02T09:13:59;16.60;52.50
27492;DHT22;14927;51.210;6.838;2023-05-02T09:16:47;16.60;52.50
27492;DHT22;14927;51.210;6.838;2023-05-02T09:19:31;16.70;52.50
27492;DHT22;14927;51.210;6.838;2023-05-02T09:22:22;16.70;52.50
27492;DHT22;14927;51.210;6.838;2023-05-02T09:25:07;16.80;52.50
27492;DHT22;14927;51.210;6.838;2023-05-02T09:27:53;16.80;52.70
27492;DHT22;14927;51.210;6.838;2023-05-02T09:30:39;16.90;52.50
27492;DHT22;14927;51.210;6.838;2023-05-02T09:33:30;16.90;52.40
27492;DHT22;14927;51.210;6.838;2023-05-02T09:36:16;17.00;52.40
27492;DHT22;14927;51.210;6.838;2023-05-02T09:39:09;17.00;52.40
27492;DHT22;14927;51.210;6.838;2023-05-02T09:41:57;17.00;52.50
27492;DHT22;14927;51.210;6.838;2023-05-02T09:44:42;17.10;52.70
27492;DHT22;14927;51.210;6.838;2023-05-02T09:47:27;17.10;52.50
27492;DHT22;14927;51.210;6.838;2023-05-02T09:50:34;17.20;52.50
27492;DHT22;14927;51.210;6.838;2023-05-02T09:53:20;17.20;51.80
27492;DHT22;14927;51.210;6.838;2023-05-02T09:56:08;17.30;51.90
27492;DHT22;14927;51.210;6.838;2023-05-02T09:59:15;17.40;51.40
27492;DHT22;14927;51.210;6.838;2023-05-02T10:02:04;17.40;50.80
27492;DHT22;14927;51.210;6.838;2023-05-02T10:04:52;17.50;50.90
27492;DHT22;14927;51.210;6.838;2023-05-02T10:07:40;17.60;50.80
27492;DHT22;14927;51.210;6.838;2023-05-02T10:10:25;17.60;50.60
27492;DHT22;14927;51.210;6.838;2023-05-02T10:13:12;17.70;50.20
27492;DHT22;14927;51.210;6.838;2023-05-02T10:16:02;17.80;49.70
27492;DHT22;14927;51.210;6.838;2023-05-02T10:18:51;17.90;49.40
27492;DHT22;14927;51.210;6.838;2023-05-02T10:21:43;17.90;49.90
27492;DHT22;14927;51.210;6.838;2023-05-02T10:24:32;18.00;49.20
27492;DHT22;14927;51.210;6.838;2023-05-02T10:27:18;18.10;48.40
27492;DHT22;14927;51.210;6.838;2023-05-02T10:30:04;18.10;48.30
27492;DHT22;14927;51.210;6.838;2023-05-02T10:32:51;18.20;47.90
27492;DHT22;14927;51.210;6.838;2023-05-02T10:35:41;18.20;47.40
27492;DHT22;14927;51.210;6.838;2023-05-02T10:38:28;18.30;46.90
27492;DHT22;14927;51.210;6.838;2023-05-02T10:41:20;18.30;46.80
27492;DHT22;14927;51.210;6.838;2023-05-02T10:44:07;18.40;46.10
27492;DHT22;14927;51.210;6.838;2023-05-02T10:46:52;18.50;47.00
27492;DHT22;14927;51.210;6.838;2023-05-02T10:49:51;18.50;46.30
27492;DHT22;14927;51.210;6.838;2023-05-02T10:52:41;18.60;45.20
27492;DHT22;14927;51.210;6.838;2023-05-02T10:55:25;18.70;45.60
27492;DHT22;14927;51.210;6.838;2023-05-02T10:58:20;18.80;45.00
27492;DHT22;14927;51.210;6.838;2023-05-02T11:04:09;18.90;43.20
27492;DHT22;14927;51.210;6.838;2023-05-02T11:09:42;18.90;43.30
27492;DHT22;14927;51.210;6.838;2023-05-02T11:18:23;19.00;42.60
27492;DHT22;14927;51.210;6.838;2023-05-02T11:21:27;19.00;42.50
27492;DHT22;14927;51.210;6.838;2023-05-02T11:30:14;19.10;42.10
27492;DHT22;14927;51.210;6.838;2023-05-02T11:35:50;19.10;42.40
27492;DHT22;14927;51.210;6.838;2023-05-02T11:38:37;19.20;42.40
27492;DHT22;14927;51.210;6.838;2023-05-02T11:41:22;19.30;41.90
27492;DHT22;14927;51.210;6.838;2023-05-02T11:44:06;19.30;41.90
27492;DHT22;14927;51.210;6.838;2023-05-02T11:46:52;19.40;41.70
27492;DHT22;14927;51.210;6.838;2023-05-02T11:49:37;19.30;41.40
27492;DHT22;14927;51.210;6.838;2023-05-02T11:52:22;19.50;41.20
27492;DHT22;14927;51.210;6.838;2023-05-02T11:55:11;19.60;40.80
27492;DHT22;14927;51.210;6.838;2023-05-02T11:57:57;19.70;40.60
27492;DHT22;14927;51.210;6.838;2023-05-02T12:00:42;19.80;40.90
27492;DHT22;14927;51.210;6.838;2023-05-02T12:03:32;19.90;40.90
27492;DHT22;14927;51.210;6.838;2023-05-02T12:06:17;19.90;40.80
27492;DHT22;14927;51.210;6.838;2023-05-02T12:09:13;20.00;40.20
27492;DHT22;14927;51.210;6.838;2023-05-02T12:12:02;20.10;39.50
27492;DHT22;14927;51.210;6.838;2023-05-02T12:14:47;20.10;40.10
27492;DHT22;14927;51.210;6.838;2023-05-02T12:17:33;20.20;39.90
27492;DHT22;14927;51.210;6.838;2023-05-02T12:20:27;20.20;39.40
27492;DHT22;14927;51.210;6.838;2023-05-02T12:23:12;20.20;39.10
27492;DHT22;14927;51.210;6.838;2023-05-02T12:25:58;20.30;38.90
27492;DHT22;14927;51.210;6.838;2023-05-02T12:28:52;20.30;38.70
27492;DHT22;14927;51.210;6.838;2023-05-02T12:31:50;20.20;37.60
27492;DHT22;14927;51.210;6.838;2023-05-02T12:34:35;20.30;37.80
27492;DHT22;14927;51.210;6.838;2023-05-02T12:37:22;20.30;38.00
27492;DHT22;14927;51.210;6.838;2023-05-02T12:40:15;20.30;37.80
27492;DHT22;14927;51.210;6.838;2023-05-02T12:43:04;20.30;37.50
27492;DHT22;14927;51.210;6.838;2023-05-02T12:46:08;20.40;37.70
27492;DHT22;14927;51.210;6.838;2023-05-02T12:49:05;20.40;36.80
27492;DHT22;14927;51.210;6.838;2023-05-02T12:51:53;20.40;37.00
27492;DHT22;14927;51.210;6.838;2023-05-02T12:54:41;20.50;37.40
27492;DHT22;14927;51.210;6.838;2023-05-02T12:57:26;20.50;37.50
27492;DHT22;14927;51.210;6.838;2023-05-02T13:00:12;20.50;37.40
27492;DHT22;14927;51.210;6.838;2023-05-02T13:02:57;20.70;37.20
27492;DHT22;14927;51.210;6.838;2023-05-02T13:05:42;20.80;37.10
27492;DHT22;14927;51.210;6.838;2023-05-02T13:08:27;21.00;36.80
27492;DHT22;14927;51.210;6.838;2023-05-02T13:11:12;21.10;36.60
27492;DHT22;14927;51.210;6.838;2023-05-02T13:13:57;21.40;36.10
27492;DHT22;14927;51.210;6.838;2023-05-02T13:16:44;21.70;35.40
27492;DHT22;14927;51.210;6.838;2023-05-02T13:19:28;22.00;34.70
27492;DHT22;14927;51.210;6.838;2023-05-02T13:22:14;22.20;34.20
27492;DHT22;14927;51.210;6.838;2023-05-02T13:24:59;22.40;33.50
27492;DHT22;14927;51.210;6.838;2023-05-02T13:27:44;22.50;33.00
27492;DHT22;14927;51.210;6.838;2023-05-02T13:30:29;22.70;32.60
27492;DHT22;14927;51.210;6.838;2023-05-02T13:33:14;22.70;31.80
27492;DHT22;14927;51.210;6.838;2023-05-02T13:35:58;22.80;31.10
27492;DHT22;14927;51.210;6.838;2023-05-02T13:38:43;22.90;31.50
27492;DHT22;14927;51.210;6.838;2023-05-02T13:41:27;23.10;31.30
27492;DHT22;14927;51.210;6.838;2023-05-02T13:44:12;23.30;31.10
27492;DHT22;14927;51.210;6.838;2023-05-02T13:46:57;23.50;30.80
27492;DHT22;14927;51.210;6.838;2023-05-02T13:49:41;23.70;30.30
27492;DHT22;14927;51.210;6.838;2023-05-02T13:52:26;24.00;30.20
27492;DHT22;14927;51.210;6.838;2023-05-02T13:55:11;24.20;30.10
27492;DHT22;14927;51.210;6.838;2023-05-02T13:57:58;24.50;29.60
27492;DHT22;14927;51.210;6.838;2023-05-02T14:00:44;24.70;29.30
27492;DHT22;14927;51.210;6.838;2023-05-02T14:03:30;24.90;28.90
27492;DHT22;14927;51.210;6.838;2023-05-02T14:06:15;25.20;28.50
27492;DHT22;14927;51.210;6.838;2023-05-02T14:08:59;25.40;28.60
27492;DHT22;14927;51.210;6.838;2023-05-02T14:11:44;25.60;28.00
27492;DHT22;14927;51.210;6.838;2023-05-02T14:14:30;25.90;27.70
27492;DHT22;14927;51.210;6.838;2023-05-02T14:17:15;26.00;27.50
27492;DHT22;14927;51.210;6.838;2023-05-02T14:19:59;26.30;27.40
27492;DHT22;14927;51.210;6.838;2023-05-02T14:22:44;26.40;27.20
27492;DHT22;14927;51.210;6.838;2023-05-02T14:25:29;26.70;26.80
27492;DHT22;14927;51.210;6.838;2023-05-02T14:28:14;26.80;26.40
27492;DHT22;14927;51.210;6.838;2023-05-02T14:30:59;26.90;26.10
27492;DHT22;14927;51.210;6.838;2023-05-02T14:33:44;26.90;25.80
27492;DHT22;14927;51.210;6.838;2023-05-02T14:36:31;26.90;25.50
27492;DHT22;14927;51.210;6.838;2023-05-02T14:39:16;26.90;25.10
27492;DHT22;14927;51.210;6.838;2023-05-02T14:42:01;26.80;25.30
27492;DHT22;14927;51.210;6.838;2023-05-02T14:44:48;26.70;25.20
27492;DHT22;14927;51.210;6.838;2023-05-02T14:47:33;26.70;25.10
27492;DHT22;14927;51.210;6.838;2023-05-02T14:50:19;26.60;25.10
27492;DHT22;14927;51.210;6.838;2023-05-02T14:53:03;26.60;24.80
27492;DHT22;14927;51.210;6.838;2023-05-02T14:55:49;26.40;24.80
27492;DHT22;14927;51.210;6.838;2023-05-02T14:58:33;26.30;25.00
27492;DHT22;14927;51.210;6.838;2023-05-02T15:01:19;26.00;24.80
27492;DHT22;14927;51.210;6.838;2023-05-02T15:04:04;26.00;24.70
27492;DHT22;14927;51.210;6.838;2023-05-02T15:06:49;26.00;24.70
27492;DHT22;14927;51.210;6.838;2023-05-02T15:09:36;26.00;24.70
27492;DHT22;14927;51.210;6.838;2023-05-02T15:12:21;25.90;24.80
27492;DHT22;14927;51.210;6.838;2023-05-02T15:15:06;25.80;24.70
27492;DHT22;14927;51.210;6.838;2023-05-02T15:17:52;25.60;24.50
27492;DHT22;14927;51.210;6.838;2023-05-02T15:20:37;25.60;24.50
27492;DHT22;14927;51.210;6.838;2023-05-02T15:23:22;25.50;25.00
27492;DHT22;14927;51.210;6.838;2023-05-02T15:26:07;25.30;24.60
27492;DHT22;14927;51.210;6.838;2023-05-02T15:28:52;25.20;24.90
27492;DHT22;14927;51.210;6.838;2023-05-02T15:31:36;25.00;25.10
27492;DHT22;14927;51.210;6.838;2023-05-02T15:34:21;24.90;25.10
27492;DHT22;14927;51.210;6.838;2023-05-02T15:37:06;24.60;25.10
27492;DHT22;14927;51.210;6.838;2023-05-02T15:39:51;24.70;25.40
27492;DHT22;14927;51.210;6.838;2023-05-02T15:42:40;24.60;25.60
27492;DHT22;14927;51.210;6.838;2023-05-02T15:45:25;24.60;25.60
27492;DHT22;14927;51.210;6.838;2023-05-02T15:48:09;24.60;25.90
27492;DHT22;14927;51.210;6.838;2023-05-02T15:50:54;24.60;26.00
27492;DHT22;14927;51.210;6.838;2023-05-02T15:53:40;24.60;25.70
27492;DHT22;14927;51.210;6.838;2023-05-02T15:56:27;24.60;25.90
27492;DHT22;14927;51.210;6.838;2023-05-02T15:59:12;24.60;25.90
27492;DHT22;14927;51.210;6.838;2023-05-02T16:01:56;24.60;26.10
27492;DHT22;14927;51.210;6.838;2023-05-02T16:04:42;24.70;26.10
27492;DHT22;14927;51.210;6.838;2023-05-02T16:07:26;24.70;25.80
27492;DHT22;14927;51.210;6.838;2023-05-02T16:10:11;24.70;25.60
27492;DHT22;14927;51.210;6.838;2023-05-02T16:12:56;24.60;25.40
27492;DHT22;14927;51.210;6.838;2023-05-02T16:15:40;24.60;25.40
27492;DHT22;14927;51.210;6.838;2023-05-02T16:18:25;24.50;26.00
27492;DHT22;14927;51.210;6.838;2023-05-02T16:21:13;24.60;26.00
27492;DHT22;14927;51.210;6.838;2023-05-02T16:23:58;24.60;25.70
27492;DHT22;14927;51.210;6.838;2023-05-02T16:26:42;24.70;25.50
27492;DHT22;14927;51.210;6.838;2023-05-02T16:29:28;24.70;25.50
27492;DHT22;14927;51.210;6.838;2023-05-02T16:32:13;24.70;25.50
27492;DHT22;14927;51.210;6.838;2023-05-02T16:34:58;24.80;25.60
27492;DHT22;14927;51.210;6.838;2023-05-02T16:37:42;24.80;25.70
27492;DHT22;14927;51.210;6.838;2023-05-02T16:40:30;25.00;25.70
27492;DHT22;14927;51.210;6.838;2023-05-02T16:43:15;25.10;25.30
27492;DHT22;14927;51.210;6.838;2023-05-02T16:46:06;25.30;25.30
27492;DHT22;14927;51.210;6.838;2023-05-02T16:48:51;25.40;24.80
27492;DHT22;14927;51.210;6.838;2023-05-02T16:51:36;25.60;25.10
27492;DHT22;14927;51.210;6.838;2023-05-02T16:54:21;25.70;24.90
27492;DHT22;14927;51.210;6.838;2023-05-02T16:57:06;25.90;24.70
27492;DHT22;14927;51.210;6.838;2023-05-02T16:59:55;26.00;24.50
27492;DHT22;14927;51.210;6.838;2023-05-02T17:02:40;26.10;24.10
27492;DHT22;14927;51.210;6.838;2023-05-02T17:05:24;26.10;24.00
27492;DHT22;14927;51.210;6.838;2023-05-02T17:08:10;26.00;23.80
27492;DHT22;14927;51.210;6.838;2023-05-02T17:10:55;25.90;23.60
27492;DHT22;14927;51.210;6.838;2023-05-02T17:13:39;25.70;23.50
27492;DHT22;14927;51.210;6.838;2023-05-02T17:16:25;25.60;23.60
27492;DHT22;14927;51.210;6.838;2023-05-02T17:19:10;25.40;23.60
27492;DHT22;14927;51.210;6.838;2023-05-02T17:21:56;25.10;23.70
27492;DHT22;14927;51.210;6.838;2023-05-02T17:24:41;25.00;23.80
27492;DHT22;14927;51.210;6.838;2023-05-02T17:27:26;24.80;23.90
27492;DHT22;14927;51.210;6.838;2023-05-02T17:30:12;24.60;24.10
27492;DHT22;14927;51.210;6.838;2023-05-02T17:32:57;24.40;24.20
27492;DHT22;14927;51.210;6.838;2023-05-02T17:35:42;24.20;24.40
27492;DHT22;14927;51.210;6.838;2023-05-02T17:38:26;23.90;24.40
27492;DHT22;14927;51.210;6.838;2023-05-02T17:41:11;23.80;24.50
27492;DHT22;14927;51.210;6.838;2023-05-02T17:43:58;23.60;24.60
27492;DHT22;14927;51.210;6.838;2023-05-02T17:46:42;23.40;24.90
27492;DHT22;14927;51.210;6.838;2023-05-02T17:49:27;23.20;25.00
27492;DHT22;14927;51.210;6.838;2023-05-02T17:52:13;23.10;25.20
27492;DHT22;14927;51.210;6.838;2023-05-02T17:55:00;22.90;25.30
27492;DHT22;14927;51.210;6.838;2023-05-02T17:57:45;22.80;25.40
27492;DHT22;14927;51.210;6.838;2023-05-02T18:00:31;22.70;25.50
27492;DHT22;14927;51.210;6.838;2023-05-02T18:03:17;22.50;25.60
27492;DHT22;14927;51.210;6.838;2023-05-02T18:06:02;22.40;25.70
27492;DHT22;14927;51.210;6.838;2023-05-02T18:08:47;22.30;25.80
27492;DHT22;14927;51.210;6.838;2023-05-02T18:11:32;22.20;26.00